Terminal Aerodrome Forecast
Issued by NWS

Home | Current Version | Previous Version | Text Only | Print | Product List | Glossary On
Versions: 1 2 3 4 5 6 7 8 9 10 11 12 13 14
973
FTUS43 KILX 212337
TAFBMI
TAF
KBMI 212337Z 2200/2224 18017G24KT P6SM SCT120 BKN250
     FM220200 17017KT P6SM SCT120 BKN250 WS015/19045KT
     FM220600 17016G22KT P6SM VCSH SCT050 BKN100
     FM220800 17015G22KT 5SM -SHRA BR VCTS SCT025CB OVC035
     FM221400 18018G24KT P6SM -SHRA SCT015 OVC035
     FM221900 28017KT 4SM -RA BR SCT006 OVC012=

USA.gov is the U.S. government's official web portal to all federal, state and local government web resources and services.